createdAt,value
2017-04-18T00:00:02.691Z,18.10
2017-04-18T00:01:01.733Z,13.95
2017-04-18T00:02:00.795Z,17.15
2017-04-18T00:02:59.902Z,15.18
2017-04-18T00:03:59.700Z,17.65
2017-04-18T00:04:59.559Z,15.68
2017-04-18T00:05:58.658Z,11.37
2017-04-18T00:06:57.706Z,16.08
2017-04-18T00:07:56.821Z,16.05
2017-04-18T00:08:55.896Z,13.28
2017-04-18T00:09:54.987Z,11.07
2017-04-18T00:10:54.319Z,11.07
2017-04-18T00:11:53.392Z,12.58
2017-04-18T00:12:52.456Z,10.82
2017-04-18T00:13:51.534Z,13.98
2017-04-18T00:14:50.619Z,12.72
2017-04-18T00:15:49.734Z,13.05
2017-04-18T00:16:48.894Z,13.15
2017-04-18T00:17:47.986Z,12.07
2017-04-18T00:18:47.071Z,11.05
2017-04-18T00:19:46.188Z,12.87
2017-04-18T00:20:45.323Z,12.02
2017-04-18T00:21:44.428Z,11.93
2017-04-18T00:22:43.587Z,13.95
2017-04-18T00:23:42.698Z,12.93
2017-04-18T00:24:41.856Z,11.92
2017-04-18T00:25:40.936Z,14.75
2017-04-18T00:26:40.050Z,10.60
2017-04-18T00:27:39.160Z,16.85
2017-04-18T00:28:38.322Z,16.92
2017-04-18T00:29:37.454Z,16.60
2017-04-18T00:30:36.524Z,19.48
2017-04-18T00:31:36.345Z,22.52
2017-04-18T00:32:35.414Z,16.62
2017-04-18T00:33:34.502Z,18.62
2017-04-18T00:34:33.635Z,12.92
2017-04-18T00:35:32.772Z,18.17
2017-04-18T00:36:31.849Z,11.75
2017-04-18T00:37:31.049Z,15.67
2017-04-18T00:38:30.399Z,12.15
2017-04-18T00:39:29.493Z,11.82
2017-04-18T00:40:28.622Z,11.38
2017-04-18T00:41:27.707Z,13.83
2017-04-18T00:42:26.771Z,12.93
2017-04-18T00:43:25.910Z,10.52
2017-04-18T00:44:24.974Z,12.90
2017-04-18T00:45:24.129Z,13.78
2017-04-18T00:46:23.215Z,12.32
2017-04-18T00:47:22.286Z,11.93
2017-04-18T00:48:21.366Z,13.98
2017-04-18T00:49:20.507Z,9.95
2017-04-18T00:50:19.578Z,11.02
2017-04-18T00:51:18.619Z,8.88
2017-04-18T00:52:17.684Z,12.23
2017-04-18T00:53:16.729Z,11.85
2017-04-18T00:54:15.875Z,10.12
2017-04-18T00:55:15.035Z,12.75
2017-04-18T00:56:14.103Z,11.28
2017-04-18T00:57:13.145Z,12.22
2017-04-18T00:58:12.549Z,13.02
2017-04-18T00:59:11.766Z,13.35
2017-04-18T01:00:10.880Z,12.88
2017-04-18T01:01:09.962Z,14.37
2017-04-18T01:02:09.127Z,11.68
2017-04-18T01:03:08.235Z,13.62
2017-04-18T01:04:07.371Z,11.05
2017-04-18T01:05:06.471Z,10.25
2017-04-18T01:06:05.558Z,13.50
2017-04-18T01:07:04.638Z,10.38
2017-04-18T01:08:03.680Z,9.15
2017-04-18T01:09:02.798Z,12.18
2017-04-18T01:10:02.031Z,11.17
2017-04-18T01:11:01.082Z,11.73
2017-04-18T01:12:00.130Z,9.90
2017-04-18T01:12:59.179Z,13.73
2017-04-18T01:13:58.262Z,12.08
2017-04-18T01:14:57.315Z,12.75
2017-04-18T01:15:56.458Z,12.77
2017-04-18T01:16:55.526Z,14.00
2017-04-18T01:17:54.569Z,15.28
2017-04-18T01:18:53.648Z,21.83
2017-04-18T01:19:52.706Z,15.60
2017-04-18T01:20:51.815Z,11.97
2017-04-18T01:21:50.922Z,10.52
2017-04-18T01:22:49.982Z,12.58
2017-04-18T01:23:49.070Z,10.50
2017-04-18T01:24:48.139Z,15.92
2017-04-18T01:25:47.178Z,11.47
2017-04-18T01:26:46.269Z,11.40
2017-04-18T01:27:45.422Z,11.60
2017-04-18T01:28:44.509Z,10.17
2017-04-18T01:29:43.558Z,10.78
2017-04-18T01:30:42.642Z,12.53
2017-04-18T01:31:41.729Z,12.97
2017-04-18T01:32:40.783Z,12.78
2017-04-18T01:33:39.915Z,16.08
2017-04-18T01:34:39.259Z,13.83
2017-04-18T01:35:38.319Z,12.45
2017-04-18T01:36:38.146Z,13.73
2017-04-18T01:37:37.243Z,12.83
2017-04-18T01:38:36.315Z,16.85
2017-04-18T01:39:35.450Z,14.28
2017-04-18T01:40:39.779Z,13.07
2017-04-18T01:41:44.138Z,14.80
2017-04-18T01:42:48.635Z,12.97
2017-04-18T01:44:56.846Z,15.62
2017-04-18T01:46:01.273Z,11.17
2017-04-18T01:47:00.393Z,15.30
2017-04-18T01:47:59.457Z,12.87
2017-04-18T01:48:58.540Z,14.60
2017-04-18T01:49:57.680Z,17.28
2017-04-18T01:50:56.824Z,16.67
2017-04-18T01:51:55.888Z,18.58
2017-04-18T01:52:54.971Z,21.92
2017-04-18T01:53:54.084Z,19.07
2017-04-18T01:54:53.152Z,15.58
2017-04-18T01:55:52.307Z,13.97
2017-04-18T01:56:51.358Z,14.25
2017-04-18T01:57:50.426Z,15.85
2017-04-18T01:58:49.484Z,17.33
2017-04-18T01:59:48.548Z,20.80
2017-04-18T02:00:47.614Z,18.05
2017-04-18T02:01:46.726Z,20.07
2017-04-18T02:02:45.867Z,24.08
2017-04-18T02:03:44.944Z,23.50
2017-04-18T02:04:44.009Z,23.13
2017-04-18T02:05:43.363Z,16.12
2017-04-18T02:06:42.429Z,14.62
2017-04-18T02:07:41.586Z,19.77
2017-04-18T02:08:40.638Z,16.10
2017-04-18T02:09:39.711Z,16.83
2017-04-18T02:10:38.786Z,14.32
2017-04-18T02:11:37.839Z,10.98
2017-04-18T02:12:37.685Z,12.60
2017-04-18T02:13:36.855Z,13.28
2017-04-18T02:14:35.936Z,15.28
2017-04-18T02:15:35.042Z,16.17
2017-04-18T02:16:34.888Z,15.95
2017-04-18T02:17:34.131Z,16.58
2017-04-18T02:18:33.223Z,13.77
2017-04-18T02:19:32.431Z,10.53
2017-04-18T02:20:31.486Z,14.02
2017-04-18T02:21:30.567Z,19.87
2017-04-18T02:22:29.619Z,18.02
2017-04-18T02:23:29.478Z,17.47
2017-04-18T02:24:28.533Z,16.32
2017-04-18T02:25:27.591Z,16.82
2017-04-18T02:26:26.661Z,16.67
2017-04-18T02:27:26.845Z,16.87
2017-04-18T02:28:25.894Z,16.90
2017-04-18T02:29:24.954Z,16.53
2017-04-18T02:30:24.752Z,15.07
2017-04-18T02:31:24.558Z,15.52
2017-04-18T02:32:24.394Z,14.82
2017-04-18T02:33:23.552Z,16.32
2017-04-18T02:34:22.665Z,12.00
2017-04-18T02:35:21.735Z,12.85
2017-04-18T02:36:20.808Z,17.45
2017-04-18T02:37:19.878Z,13.17
2017-04-18T02:38:19.694Z,12.28
2017-04-18T02:39:18.804Z,17.53
2017-04-18T02:40:17.886Z,15.75
2017-04-18T02:41:17.002Z,19.35
2017-04-18T02:42:16.066Z,13.70
2017-04-18T02:43:15.149Z,15.92
2017-04-18T02:44:14.211Z,15.00
2017-04-18T02:45:13.326Z,16.25
2017-04-18T02:46:12.375Z,11.85
2017-04-18T02:47:11.445Z,13.45
2017-04-18T02:48:11.235Z,15.63
2017-04-18T02:49:10.622Z,16.55
2017-04-18T02:50:09.815Z,16.47
2017-04-18T02:51:08.943Z,15.40
2017-04-18T02:52:08.119Z,12.93
2017-04-18T02:53:07.191Z,14.32
2017-04-18T02:54:06.302Z,14.32
2017-04-18T02:55:05.367Z,13.80
2017-04-18T02:56:05.158Z,9.83
2017-04-18T02:57:05.058Z,11.20
2017-04-18T02:58:04.164Z,11.75
2017-04-18T02:59:03.249Z,12.05
2017-04-18T03:00:02.322Z,13.28
2017-04-18T03:01:01.398Z,11.70
2017-04-18T03:02:00.542Z,12.65
2017-04-18T03:02:59.630Z,11.68
2017-04-18T03:03:58.730Z,13.55
2017-04-18T03:04:57.819Z,11.38
2017-04-18T03:05:56.978Z,10.35
2017-04-18T03:06:56.776Z,12.03
2017-04-18T03:07:55.942Z,10.08
2017-04-18T03:08:55.025Z,11.23
2017-04-18T03:10:00.731Z,12.13
2017-04-18T03:10:59.792Z,13.03
2017-04-18T03:11:59.634Z,11.45
2017-04-18T03:12:59.480Z,11.77
2017-04-18T03:13:58.571Z,13.03
2017-04-18T03:14:57.625Z,11.57
2017-04-18T03:15:56.778Z,11.18
2017-04-18T03:16:55.841Z,12.52
2017-04-18T03:17:54.915Z,10.92
2017-04-18T03:18:54.022Z,9.57
2017-04-18T03:19:53.198Z,8.18
2017-04-18T03:20:52.270Z,10.82
2017-04-18T03:21:51.350Z,10.85
2017-04-18T03:22:50.415Z,8.75
2017-04-18T03:23:49.483Z,10.07
2017-04-18T03:24:48.579Z,10.20
2017-04-18T03:25:47.958Z,10.42
2017-04-18T03:26:47.058Z,8.58
2017-04-18T03:27:46.107Z,10.15
2017-04-18T03:28:45.234Z,10.08
2017-04-18T03:29:44.339Z,9.08
2017-04-18T03:30:43.388Z,11.08
2017-04-18T03:31:42.446Z,11.22
2017-04-18T03:32:41.552Z,9.53
2017-04-18T03:33:40.636Z,9.60
2017-04-18T03:34:39.720Z,9.88
2017-04-18T03:35:38.783Z,12.05
2017-04-18T03:36:37.895Z,10.47
2017-04-18T03:37:36.984Z,8.45
2017-04-18T03:38:36.086Z,10.25
2017-04-18T03:39:35.152Z,10.02
2017-04-18T03:40:34.234Z,10.53
2017-04-18T03:41:33.292Z,10.40
2017-04-18T03:42:32.341Z,9.83
2017-04-18T03:43:31.385Z,10.72
2017-04-18T03:44:30.471Z,9.68
2017-04-18T03:45:29.530Z,10.63
2017-04-18T03:46:28.581Z,9.67
2017-04-18T03:47:27.624Z,10.05
2017-04-18T03:48:26.678Z,9.52
2017-04-18T03:49:25.742Z,9.03
2017-04-18T03:50:24.827Z,8.50
2017-04-18T03:51:23.863Z,6.67
2017-04-18T03:52:22.969Z,7.35
2017-04-18T03:53:22.033Z,7.58
2017-04-18T03:54:21.119Z,8.82
2017-04-18T03:55:20.178Z,8.55
2017-04-18T03:56:19.302Z,8.52
2017-04-18T03:57:18.379Z,10.75
2017-04-18T03:58:17.459Z,8.02
2017-04-18T03:59:16.544Z,10.50
2017-04-18T04:00:15.610Z,10.05
2017-04-18T04:01:15.498Z,10.73
2017-04-18T04:02:14.571Z,10.87
2017-04-18T04:03:13.638Z,12.77
2017-04-18T04:04:12.691Z,9.08
2017-04-18T04:05:11.787Z,11.00
2017-04-18T04:06:10.878Z,10.88
2017-04-18T04:07:10.015Z,9.77
2017-04-18T04:08:09.090Z,10.62
2017-04-18T04:09:09.047Z,11.38
2017-04-18T04:10:08.106Z,9.73
2017-04-18T04:11:07.921Z,11.37
2017-04-18T04:12:07.084Z,12.17
2017-04-18T04:13:06.157Z,11.90
2017-04-18T04:14:05.247Z,11.43
2017-04-18T04:15:04.342Z,13.07
2017-04-18T04:16:03.452Z,12.55
2017-04-18T04:17:02.535Z,13.48
2017-04-18T04:18:01.634Z,13.48
2017-04-18T04:19:00.701Z,11.93
2017-04-18T04:19:59.771Z,12.13
2017-04-18T04:20:59.590Z,10.88
2017-04-18T04:21:58.659Z,10.75
2017-04-18T04:22:57.719Z,12.63
2017-04-18T04:23:56.812Z,12.43
2017-04-18T04:24:55.939Z,12.53
2017-04-18T04:25:54.989Z,11.65
2017-04-18T04:26:54.055Z,13.37
2017-04-18T04:27:53.136Z,12.23
2017-04-18T04:28:52.192Z,12.87
2017-04-18T04:29:51.259Z,12.27
2017-04-18T04:30:50.363Z,11.87
2017-04-18T04:31:49.435Z,12.43
2017-04-18T04:32:48.542Z,11.97
2017-04-18T04:33:47.645Z,12.18
2017-04-18T04:34:46.705Z,11.95
2017-04-18T04:35:45.791Z,12.18
2017-04-18T04:36:44.874Z,13.38
2017-04-18T04:37:43.942Z,14.65
2017-04-18T04:38:43.075Z,12.05
2017-04-18T04:39:42.147Z,13.77
2017-04-18T04:40:41.205Z,13.77
2017-04-18T04:41:40.282Z,15.63
2017-04-18T04:42:39.362Z,15.55
2017-04-18T04:43:38.453Z,16.23
2017-04-18T04:44:37.587Z,15.30
2017-04-18T04:45:36.650Z,14.83
2017-04-18T04:46:35.724Z,13.32
2017-04-18T04:47:34.811Z,15.48
2017-04-18T04:48:33.891Z,14.80
2017-04-18T04:49:33.110Z,12.00
2017-04-18T04:50:32.227Z,13.43
2017-04-18T04:51:32.030Z,17.35
2017-04-18T04:52:31.079Z,14.92
2017-04-18T04:53:30.139Z,16.47
2017-04-18T04:54:29.207Z,14.98
2017-04-18T04:55:28.267Z,17.67
2017-04-18T04:56:28.165Z,14.53
2017-04-18T04:57:27.244Z,15.52
2017-04-18T04:58:26.288Z,15.77
2017-04-18T04:59:25.355Z,14.82
2017-04-18T05:00:25.431Z,13.42
2017-04-18T05:01:25.239Z,15.67
2017-04-18T05:02:24.366Z,13.98
2017-04-18T05:03:24.199Z,14.43
2017-04-18T05:04:23.275Z,13.73
2017-04-18T05:05:22.423Z,15.23
2017-04-18T05:06:21.526Z,15.65
2017-04-18T05:07:20.711Z,23.88
2017-04-18T05:08:19.867Z,16.98
2017-04-18T05:09:18.923Z,20.70
2017-04-18T05:10:18.039Z,15.23
2017-04-18T05:11:17.114Z,15.33
2017-04-18T05:12:16.171Z,16.75
2017-04-18T05:13:15.219Z,15.60
2017-04-18T05:14:14.308Z,16.10
2017-04-18T05:15:13.382Z,17.37
2017-04-18T05:16:12.446Z,16.03
2017-04-18T05:17:11.567Z,16.25
2017-04-18T05:18:10.631Z,17.43
2017-04-18T05:19:09.760Z,16.73
2017-04-18T05:20:08.835Z,16.42
2017-04-18T05:21:07.890Z,16.77
2017-04-18T05:22:07.006Z,16.73
2017-04-18T05:23:06.064Z,15.82
2017-04-18T05:24:05.235Z,17.42
2017-04-18T05:25:04.303Z,16.13
2017-04-18T05:26:03.354Z,17.47
2017-04-18T05:27:02.431Z,18.35
2017-04-18T05:28:01.546Z,17.10
2017-04-18T05:29:00.623Z,17.47
2017-04-18T05:29:59.756Z,18.95
2017-04-18T05:30:58.824Z,18.22
2017-04-18T05:31:57.902Z,17.88
2017-04-18T05:32:56.966Z,17.35
2017-04-18T05:33:56.789Z,19.02
2017-04-18T05:34:56.043Z,16.83
2017-04-18T05:35:55.127Z,18.50
2017-04-18T05:36:54.175Z,17.43
2017-04-18T05:37:53.232Z,15.58
2017-04-18T05:38:52.278Z,16.53
2017-04-18T05:39:51.323Z,19.48
2017-04-18T05:40:50.411Z,17.95
2017-04-18T05:41:49.514Z,18.88
2017-04-18T05:42:48.582Z,18.23
2017-04-18T05:43:47.657Z,18.37
2017-04-18T05:44:46.711Z,16.60
2017-04-18T05:45:45.763Z,20.63
2017-04-18T05:46:44.880Z,19.27
2017-04-18T05:47:43.991Z,20.22
2017-04-18T05:48:43.056Z,20.72
2017-04-18T05:49:42.132Z,20.48
2017-04-18T05:50:41.223Z,22.58
2017-04-18T05:51:40.281Z,21.65
2017-04-18T05:52:39.334Z,24.35
2017-04-18T05:53:38.467Z,21.72
2017-04-18T05:54:38.272Z,26.92
2017-04-18T05:55:37.410Z,26.83
2017-04-18T05:56:36.554Z,23.40
2017-04-18T05:57:35.678Z,24.27
2017-04-18T05:58:35.003Z,24.50
2017-04-18T05:59:34.158Z,22.73
2017-04-18T06:00:33.258Z,27.77
2017-04-18T06:01:32.342Z,33.67
2017-04-18T06:02:32.061Z,23.65
2017-04-18T06:03:31.135Z,26.58
2017-04-18T06:04:30.211Z,23.58
2017-04-18T06:05:29.336Z,21.58
2017-04-18T06:06:28.502Z,24.07
2017-04-18T06:07:27.586Z,29.30
2017-04-18T06:08:26.654Z,22.42
2017-04-18T06:09:25.742Z,22.87
2017-04-18T06:10:24.867Z,25.60
2017-04-18T06:11:23.998Z,26.60
2017-04-18T06:12:23.442Z,28.82
2017-04-18T06:13:22.621Z,24.52
2017-04-18T06:14:22.486Z,27.12
2017-04-18T06:15:21.575Z,30.82
2017-04-18T06:16:20.674Z,28.30
2017-04-18T06:17:19.754Z,29.43
2017-04-18T06:18:18.875Z,34.42
2017-04-18T06:19:18.190Z,30.08
2017-04-18T06:20:17.362Z,28.35
2017-04-18T06:21:16.488Z,28.02
2017-04-18T06:22:15.679Z,30.98
2017-04-18T06:23:14.779Z,32.80
2017-04-18T06:24:13.974Z,27.52
2017-04-18T06:25:13.122Z,29.98
2017-04-18T06:26:12.199Z,26.03
2017-04-18T06:27:11.288Z,26.72
2017-04-18T06:28:10.396Z,26.03
2017-04-18T06:29:09.454Z,25.10
2017-04-18T06:30:08.534Z,25.18
2017-04-18T06:31:07.705Z,27.08
2017-04-18T06:32:06.780Z,22.52
2017-04-18T06:33:05.890Z,26.10
2017-04-18T06:34:04.994Z,22.48
2017-04-18T06:35:04.806Z,22.05
2017-04-18T06:36:03.911Z,20.08
2017-04-18T06:37:02.997Z,23.10
2017-04-18T06:38:02.119Z,23.30
2017-04-18T06:39:01.278Z,25.33
2017-04-18T06:40:00.356Z,23.87
2017-04-18T06:40:59.466Z,24.37
2017-04-18T06:41:59.331Z,22.98
2017-04-18T06:42:58.399Z,21.28
2017-04-18T06:43:57.479Z,20.57
2017-04-18T06:44:56.584Z,22.07
2017-04-18T06:45:55.648Z,20.37
2017-04-18T06:46:54.707Z,16.10
2017-04-18T06:47:53.854Z,19.68
2017-04-18T06:48:52.943Z,19.40
2017-04-18T06:49:52.012Z,17.82
2017-04-18T06:50:51.396Z,17.97
2017-04-18T06:51:50.471Z,17.23
2017-04-18T06:52:49.570Z,17.07
2017-04-18T06:53:48.709Z,14.73
2017-04-18T06:54:47.798Z,17.07
2017-04-18T06:55:46.866Z,15.00
2017-04-18T06:56:45.931Z,17.47
2017-04-18T06:57:45.016Z,16.65
2017-04-18T06:58:44.103Z,18.55
2017-04-18T06:59:43.228Z,14.97
2017-04-18T07:00:42.302Z,19.30
2017-04-18T07:01:41.376Z,16.28
2017-04-18T07:02:40.437Z,16.57
2017-04-18T07:03:39.525Z,18.85
2017-04-18T07:04:38.599Z,17.78
2017-04-18T07:05:37.683Z,17.80
2017-04-18T07:06:36.870Z,16.82
2017-04-18T07:07:35.970Z,15.67
2017-04-18T07:08:35.313Z,17.12
2017-04-18T07:09:34.490Z,16.97
2017-04-18T07:10:33.619Z,17.17
2017-04-18T07:11:32.725Z,17.67
2017-04-18T07:12:31.834Z,17.68
2017-04-18T07:13:30.948Z,18.80
2017-04-18T07:14:30.046Z,21.32
2017-04-18T07:15:29.911Z,20.08
2017-04-18T07:16:28.979Z,20.40
2017-04-18T07:17:28.888Z,24.32
2017-04-18T07:18:27.986Z,20.57
2017-04-18T07:19:27.051Z,20.97
2017-04-18T07:20:26.126Z,23.93
2017-04-18T07:21:25.968Z,21.53
2017-04-18T07:22:25.097Z,29.52
2017-04-18T07:23:24.263Z,24.48
2017-04-18T07:24:23.435Z,24.93
2017-04-18T07:25:22.553Z,21.85
2017-04-18T07:26:21.626Z,22.40
2017-04-18T07:27:23.410Z,22.48
2017-04-18T07:28:22.595Z,25.13
2017-04-18T07:29:22.415Z,26.62
2017-04-18T07:30:21.483Z,23.05
2017-04-18T07:31:21.282Z,23.35
2017-04-18T07:32:20.358Z,22.30
2017-04-18T07:33:19.442Z,23.08
2017-04-18T07:34:18.573Z,23.37
2017-04-18T07:35:17.655Z,24.45
2017-04-18T07:36:16.811Z,23.03
2017-04-18T07:37:15.906Z,30.30
2017-04-18T07:38:15.726Z,28.50
2017-04-18T07:39:14.809Z,27.88
2017-04-18T07:40:13.930Z,30.32
2017-04-18T07:41:13.010Z,25.27
2017-04-18T07:42:12.130Z,27.25
2017-04-18T07:43:11.313Z,28.53
2017-04-18T07:44:10.434Z,28.58
2017-04-18T07:45:09.499Z,27.92
2017-04-18T07:46:08.626Z,27.55
2017-04-18T07:47:07.716Z,29.42
2017-04-18T07:48:06.849Z,30.02
2017-04-18T07:49:06.004Z,28.22
2017-04-18T07:50:05.123Z,35.78
2017-04-18T07:51:07.191Z,32.02
2017-04-18T07:52:06.410Z,26.60
2017-04-18T07:53:05.546Z,28.85
2017-04-18T07:54:04.648Z,28.08
2017-04-18T07:55:03.719Z,26.20
2017-04-18T07:56:03.535Z,26.33
2017-04-18T07:57:02.658Z,27.08
2017-04-18T07:58:01.853Z,25.55
2017-04-18T07:59:00.938Z,29.37
2017-04-18T08:00:00.034Z,27.07
2017-04-18T08:00:59.154Z,28.33
2017-04-18T08:01:59.036Z,29.30
2017-04-18T08:02:58.108Z,29.58
2017-04-18T08:03:57.259Z,28.63
2017-04-18T08:04:56.382Z,23.47
2017-04-18T08:05:55.475Z,28.77
2017-04-18T08:06:54.639Z,28.57
2017-04-18T08:07:53.851Z,27.37
2017-04-18T08:08:53.020Z,27.18
2017-04-18T08:09:52.193Z,27.13
2017-04-18T08:10:51.434Z,30.62
2017-04-18T08:11:50.561Z,29.75
2017-04-18T08:12:50.495Z,25.82
2017-04-18T08:13:49.665Z,27.97
2017-04-18T08:14:48.760Z,29.27
2017-04-18T08:15:47.935Z,26.98
2017-04-18T08:16:47.023Z,29.58
2017-04-18T08:17:46.187Z,28.13
2017-04-18T08:18:45.290Z,27.72
2017-04-18T08:19:44.419Z,30.90
2017-04-18T08:20:43.583Z,32.03
2017-04-18T08:21:43.408Z,28.07
2017-04-18T08:22:42.497Z,30.48
2017-04-18T08:23:41.607Z,28.72
2017-04-18T08:24:40.762Z,28.97
2017-04-18T08:25:39.882Z,26.13
2017-04-18T08:26:39.743Z,29.93
2017-04-18T08:27:38.851Z,27.80
2017-04-18T08:28:37.930Z,29.63
2017-04-18T08:29:37.072Z,30.58
2017-04-18T08:30:36.201Z,33.48
2017-04-18T08:31:35.351Z,29.30
2017-04-18T08:32:34.793Z,29.78
2017-04-18T08:33:33.910Z,30.17
2017-04-18T08:34:33.032Z,34.23
2017-04-18T08:35:32.921Z,29.35
2017-04-18T08:36:32.069Z,26.67
2017-04-18T08:37:31.193Z,29.95
2017-04-18T08:38:30.283Z,32.62
2017-04-18T08:39:29.394Z,30.30
2017-04-18T08:40:28.515Z,29.78
2017-04-18T08:41:27.596Z,29.83
2017-04-18T08:42:26.714Z,29.78
2017-04-18T08:43:25.800Z,23.68
2017-04-18T08:44:24.889Z,27.45
2017-04-18T08:45:24.002Z,23.02
2017-04-18T08:46:23.091Z,25.60
2017-04-18T08:47:22.262Z,26.88
2017-04-18T08:48:21.351Z,26.22
2017-04-18T08:49:20.469Z,26.40
2017-04-18T08:50:19.538Z,27.20
2017-04-18T08:51:18.620Z,28.38
2017-04-18T08:52:17.703Z,29.02
2017-04-18T08:53:16.822Z,27.07
2017-04-18T08:54:15.896Z,31.88
2017-04-18T08:55:15.050Z,27.32
2017-04-18T08:56:14.208Z,25.22
2017-04-18T08:57:13.290Z,25.90
2017-04-18T08:58:12.400Z,25.10
2017-04-18T08:59:11.558Z,24.32
2017-04-18T09:00:10.690Z,23.62
2017-04-18T09:01:09.811Z,21.85
2017-04-18T09:02:08.904Z,23.77
2017-04-18T09:03:07.998Z,22.35
2017-04-18T09:04:07.099Z,24.72
2017-04-18T09:05:06.216Z,21.75
2017-04-18T09:06:05.633Z,21.68
2017-04-18T09:07:04.755Z,22.82
2017-04-18T09:08:03.847Z,23.20
2017-04-18T09:09:02.971Z,23.50
2017-04-18T09:10:02.059Z,21.97
2017-04-18T09:11:01.224Z,22.80
2017-04-18T09:12:00.310Z,22.63
2017-04-18T09:12:59.432Z,21.82
2017-04-18T09:13:59.417Z,23.92
2017-04-18T09:14:58.999Z,24.95
2017-04-18T09:15:58.068Z,22.35
2017-04-18T09:16:57.183Z,21.43
2017-04-18T09:17:56.261Z,23.12
2017-04-18T09:18:55.330Z,22.22
2017-04-18T09:19:54.475Z,21.67
2017-04-18T09:20:53.552Z,19.75
2017-04-18T09:21:52.621Z,19.20
2017-04-18T09:22:51.738Z,19.30
2017-04-18T09:23:50.822Z,19.10
2017-04-18T09:24:49.886Z,18.40
2017-04-18T09:25:48.946Z,19.17
2017-04-18T09:26:48.233Z,18.63
2017-04-18T09:27:47.351Z,18.55
2017-04-18T09:28:46.489Z,17.28
2017-04-18T09:29:45.538Z,17.07
2017-04-18T09:30:44.674Z,18.92
2017-04-18T09:31:44.079Z,16.27
2017-04-18T09:32:43.171Z,17.50
2017-04-18T09:33:42.986Z,18.38
2017-04-18T09:34:42.064Z,16.65
2017-04-18T09:35:41.931Z,14.03
2017-04-18T09:36:41.001Z,13.70
2017-04-18T09:37:40.122Z,17.90
2017-04-18T09:38:39.199Z,17.38
2017-04-18T09:39:38.271Z,16.10
2017-04-18T09:40:37.405Z,15.08
2017-04-18T09:41:36.495Z,14.13
2017-04-18T09:42:35.594Z,14.57
2017-04-18T09:43:34.715Z,16.15
2017-04-18T09:44:33.827Z,15.97
2017-04-18T09:45:33.722Z,18.22
2017-04-18T09:46:32.819Z,15.37
2017-04-18T09:47:32.724Z,15.30
2017-04-18T09:48:31.847Z,18.68
2017-04-18T09:49:31.002Z,14.85
2017-04-18T09:50:30.091Z,17.72
2017-04-18T09:51:29.226Z,17.17
2017-04-18T09:52:28.366Z,14.53
2017-04-18T09:53:27.482Z,15.73
2017-04-18T09:54:26.619Z,15.60
2017-04-18T09:55:25.679Z,17.82
2017-04-18T09:56:24.754Z,16.03
2017-04-18T09:57:23.845Z,17.58
2017-04-18T09:58:23.706Z,17.77
2017-04-18T09:59:22.850Z,15.60
2017-04-18T10:00:21.961Z,16.98
2017-04-18T10:01:21.146Z,17.90
2017-04-18T10:02:20.996Z,16.60
2017-04-18T10:03:20.117Z,19.65
2017-04-18T10:04:19.320Z,18.17
2017-04-18T10:05:18.646Z,18.40
2017-04-18T10:06:17.789Z,16.52
2017-04-18T10:07:16.924Z,19.55
2017-04-18T10:08:16.051Z,19.53
2017-04-18T10:09:15.191Z,17.45
2017-04-18T10:10:14.338Z,17.72
2017-04-18T10:11:14.214Z,17.07
2017-04-18T10:12:13.350Z,17.95
2017-04-18T10:13:12.527Z,16.82
2017-04-18T10:14:11.739Z,17.60
2017-04-18T10:15:10.875Z,18.90
2017-04-18T10:16:10.762Z,16.37
2017-04-18T10:17:09.851Z,16.57
2017-04-18T10:18:09.089Z,18.27
2017-04-18T10:19:08.194Z,17.57
2017-04-18T10:20:07.342Z,17.70
2017-04-18T10:21:06.536Z,21.28
2017-04-18T10:22:05.647Z,16.88
2017-04-18T10:23:04.830Z,18.80
2017-04-18T10:24:04.019Z,18.40
2017-04-18T10:25:04.195Z,18.10
2017-04-18T10:26:03.334Z,17.68
2017-04-18T10:27:02.487Z,17.57
2017-04-18T10:28:01.560Z,19.27
2017-04-18T10:29:00.680Z,19.17
2017-04-18T10:29:59.814Z,17.02
2017-04-18T10:30:58.936Z,18.28
2017-04-18T10:31:58.105Z,18.00
2017-04-18T10:32:57.202Z,17.52
2017-04-18T10:33:56.286Z,17.75
2017-04-18T10:34:55.410Z,16.38
2017-04-18T10:35:55.965Z,17.87
2017-04-18T10:36:55.066Z,17.97
2017-04-18T10:37:54.194Z,16.62
2017-04-18T10:38:53.362Z,15.02
2017-04-18T10:39:52.467Z,15.87
2017-04-18T10:40:51.860Z,16.88
2017-04-18T10:41:51.766Z,15.97
2017-04-18T10:42:51.877Z,18.37
2017-04-18T10:43:51.021Z,17.55
2017-04-18T10:44:50.114Z,17.52
2017-04-18T10:45:49.237Z,15.42
2017-04-18T10:46:48.302Z,15.33
2017-04-18T10:47:47.397Z,15.75
2017-04-18T10:48:46.504Z,16.00
2017-04-18T10:49:45.706Z,16.07
2017-04-18T10:50:44.786Z,16.42
2017-04-18T10:51:43.890Z,16.43
2017-04-18T10:52:43.767Z,15.80
2017-04-18T10:53:42.871Z,16.83
2017-04-18T10:54:41.955Z,15.75
2017-04-18T10:55:41.116Z,14.52
2017-04-18T10:56:40.265Z,15.50
2017-04-18T10:57:39.447Z,17.03
2017-04-18T10:58:38.687Z,17.00
2017-04-18T10:59:37.814Z,16.33
2017-04-18T11:00:37.292Z,17.68
2017-04-18T11:01:37.126Z,17.93
2017-04-18T11:02:36.277Z,18.42
2017-04-18T11:03:36.157Z,18.22
2017-04-18T11:04:35.330Z,22.25
2017-04-18T11:05:35.206Z,17.47
2017-04-18T11:06:34.434Z,44.55
2017-04-18T11:07:33.538Z,16.93
2017-04-18T11:08:32.664Z,16.12
2017-04-18T11:09:31.753Z,17.72
2017-04-18T11:10:31.062Z,15.42
2017-04-18T11:11:30.146Z,16.05
2017-04-18T11:12:29.278Z,16.37
2017-04-18T11:13:28.399Z,16.20
2017-04-18T11:14:27.555Z,15.68
2017-04-18T11:15:27.444Z,15.23
2017-04-18T11:16:26.592Z,15.37
2017-04-18T11:17:25.751Z,16.70
2017-04-18T11:18:25.000Z,15.02
2017-04-18T11:19:24.194Z,15.27
2017-04-18T11:20:24.102Z,16.10
2017-04-18T11:21:23.296Z,14.65
2017-04-18T11:22:23.212Z,16.17
2017-04-18T11:23:22.362Z,16.47
2017-04-18T11:24:21.506Z,16.37
2017-04-18T11:25:20.599Z,17.27
2017-04-18T11:26:19.795Z,15.18
2017-04-18T11:27:18.906Z,16.10
2017-04-18T11:28:18.244Z,14.38
2017-04-18T11:29:17.598Z,14.60
2017-04-18T11:30:16.756Z,14.65
2017-04-18T11:31:15.855Z,14.05
2017-04-18T11:32:15.076Z,13.23
2017-04-18T11:33:14.170Z,13.82
2017-04-18T11:34:14.021Z,12.35
2017-04-18T11:35:13.222Z,13.12
2017-04-18T11:36:12.491Z,13.08
2017-04-18T11:37:12.229Z,12.58
2017-04-18T11:38:12.164Z,14.17
2017-04-18T11:39:11.348Z,13.82
2017-04-18T11:40:10.475Z,15.35
2017-04-18T11:41:10.411Z,13.95
2017-04-18T11:42:09.540Z,14.02
2017-04-18T11:43:08.711Z,13.48
2017-04-18T11:44:07.821Z,15.68
2017-04-18T11:45:06.962Z,13.12
2017-04-18T11:46:06.182Z,15.02
2017-04-18T11:47:05.346Z,15.15
2017-04-18T11:48:04.545Z,15.48
2017-04-18T11:49:03.707Z,13.08
2017-04-18T11:50:02.922Z,12.95
2017-04-18T11:51:02.263Z,13.57
2017-04-18T11:52:01.394Z,14.73
2017-04-18T11:53:00.550Z,12.98
2017-04-18T11:53:59.966Z,13.53
2017-04-18T11:54:59.823Z,13.67
2017-04-18T11:55:58.906Z,11.15
2017-04-18T11:56:58.730Z,12.85
2017-04-18T11:57:57.858Z,13.95
2017-04-18T11:58:57.042Z,11.93
2017-04-18T11:59:56.199Z,13.90
2017-04-18T12:00:55.320Z,12.73
2017-04-18T12:01:54.422Z,15.68
2017-04-18T12:02:53.664Z,12.75
2017-04-18T12:03:53.545Z,14.27
2017-04-18T12:04:52.643Z,13.62
2017-04-18T12:05:51.977Z,14.48
2017-04-18T12:06:51.177Z,12.60
2017-04-18T12:07:50.315Z,14.00
2017-04-18T12:08:49.490Z,13.08
2017-04-18T12:09:48.654Z,15.52
2017-04-18T12:10:48.000Z,13.57
2017-04-18T12:11:47.909Z,13.55
2017-04-18T12:12:47.046Z,17.43
2017-04-18T12:13:46.670Z,17.83
2017-04-18T12:14:45.800Z,17.30
2017-04-18T12:15:45.015Z,16.97
2017-04-18T12:16:44.261Z,18.42
2017-04-18T12:17:43.518Z,15.10
2017-04-18T12:18:42.583Z,15.22
2017-04-18T12:19:42.055Z,13.28
2017-04-18T12:20:41.281Z,15.15
2017-04-18T12:21:40.364Z,15.67
2017-04-18T12:22:39.598Z,15.10
2017-04-18T12:23:38.704Z,12.90
2017-04-18T12:24:37.854Z,14.72
2017-04-18T12:25:37.035Z,15.37
2017-04-18T12:26:36.470Z,16.12
2017-04-18T12:27:35.632Z,15.73
2017-04-18T12:28:41.283Z,15.47
2017-04-18T12:29:40.409Z,16.92
2017-04-18T12:30:39.615Z,15.58
2017-04-18T12:31:38.772Z,15.70
2017-04-18T12:32:37.878Z,16.57
2017-04-18T12:33:37.014Z,17.67
2017-04-18T12:34:36.359Z,15.78
2017-04-18T12:35:36.063Z,17.73
2017-04-18T12:36:36.191Z,17.55
2017-04-18T12:37:35.400Z,17.25
2017-04-18T12:38:34.503Z,18.23
2017-04-18T12:39:33.672Z,15.75
2017-04-18T12:40:32.798Z,16.95
2017-04-18T12:41:31.859Z,15.82
2017-04-18T12:42:30.919Z,15.02
2017-04-18T12:43:29.975Z,14.97
2017-04-18T12:44:29.076Z,15.00